Cap Aiguades — FMII — position and weather

sailwx.info

Track history (hours):
 
Tides and Currents Weather Stations Pressure Air Temp Water Temp Dewpoint Dewpoint Depression Visibility Wind Speed Wind Dir Waves Ship Positions

Cap Aiguades

Last reported at 2017-Nov-23 16:30 UTC. Time now 2017-Nov-23 16:55 UTC.
Position N 43°24' E 004°59'.

Length 89 m; draft 4.8 m.

Type: Ship. MMSI: 228237800.

Date/timePositionNaut miles runAvg speedWind from/ knotsBaromVisibWave heightAir tempDewpointWater temp
2017-Nov-23 16:30N 43°24' E 004°59'0 0.9
2017-Nov-23 16:00N 43°24' E 004°60'0 0.0
2017-Nov-23 15:30N 43°24' E 004°60'0 0.0
2017-Nov-23 15:00N 43°24' E 004°60'0 0.0
2017-Nov-23 14:30N 43°24' E 004°60'0 0.0
2017-Nov-23 14:00N 43°24' E 004°60'0 0.0
2017-Nov-23 13:30N 43°24' E 004°60'0 0.0
2017-Nov-23 13:00N 43°24' E 004°60'7 8.6
2017-Nov-23 12:14N 43°25' E 004°51'6 0.7
2017-Nov-23 04:16N 43°23' E 004°58'1 3.7
2017-Nov-23 04:00N 43°24' E 004°59'0 0.0
2017-Nov-23 03:30N 43°24' E 004°59'0 0.0
2017-Nov-23 03:00N 43°24' E 004°59'0 0.0
2017-Nov-23 02:30N 43°24' E 004°59'0 0.0
2017-Nov-23 02:00N 43°24' E 004°59'0 0.0
2017-Nov-23 01:30N 43°24' E 004°59'0 0.0
2017-Nov-23 01:00N 43°24' E 004°59'0 0.0
2017-Nov-23 00:30N 43°24' E 004°59'0 0.0
2017-Nov-23 00:00N 43°24' E 004°59'0 0.0
2017-Nov-22 23:30N 43°24' E 004°59'0 0.0
2017-Nov-22 23:00N 43°24' E 004°59'0 0.0
2017-Nov-22 22:30N 43°24' E 004°59'0 0.0
2017-Nov-22 22:00N 43°24' E 004°59'0 0.0
2017-Nov-22 21:30N 43°24' E 004°59'0 0.0
2017-Nov-22 21:00N 43°24' E 004°59'0 0.0
2017-Nov-22 20:30N 43°24' E 004°59'0 0.0
2017-Nov-22 20:00N 43°24' E 004°59'0 0.0
2017-Nov-22 19:30N 43°24' E 004°59'  
2017-Nov-20 00:30N 43°06' E 005°53'0 0.0
2017-Nov-20 00:00N 43°06' E 005°53'0 0.0
2017-Nov-19 23:30N 43°06' E 005°53'0 0.0
2017-Nov-19 23:00N 43°06' E 005°53'0 0.0
2017-Nov-19 22:30N 43°06' E 005°53'0 0.0
2017-Nov-19 22:00N 43°06' E 005°53'0 0.0
2017-Nov-19 21:30N 43°06' E 005°53'0 0.0
2017-Nov-19 21:00N 43°06' E 005°53'0 0.0
2017-Nov-19 20:30N 43°06' E 005°53'0 0.0
2017-Nov-19 20:00N 43°06' E 005°53'0 0.0
2017-Nov-19 19:30N 43°06' E 005°53'0 0.0
2017-Nov-19 19:00N 43°06' E 005°53'0 0.0
2017-Nov-19 18:30N 43°06' E 005°53'1 2.6
2017-Nov-19 17:59N 43°07' E 005°55'0 0.2
2017-Nov-19 14:56N 43°07' E 005°56'0 0.1
2017-Nov-19 14:25N 43°07' E 005°56'0 0.0
2017-Nov-19 13:45N 43°07' E 005°56'0 0.0
2017-Nov-19 13:30N 43°07' E 005°56'0 0.0
2017-Nov-19 13:00N 43°07' E 005°56'0 0.0
2017-Nov-19 12:30N 43°07' E 005°56'0 0.1
2017-Nov-19 11:58N 43°07' E 005°56'45 6.4
2017-Nov-19 04:57N 43°22' E 004°58'2 4.4
2017-Nov-19 04:30N 43°24' E 004°59'0 0.0
2017-Nov-19 04:00N 43°24' E 004°59'0 0.0
2017-Nov-19 03:30N 43°24' E 004°59'0 0.0
2017-Nov-19 03:00N 43°24' E 004°59'0 0.0
2017-Nov-19 02:30N 43°24' E 004°59'0 0.0
2017-Nov-19 02:00N 43°24' E 004°59'0 0.0
2017-Nov-19 01:30N 43°24' E 004°59'0 0.0
2017-Nov-19 01:00N 43°24' E 004°59'0 0.0
2017-Nov-19 00:30N 43°24' E 004°59'0 0.0
2017-Nov-19 00:00N 43°24' E 004°59'0 0.0
2017-Nov-18 23:30N 43°24' E 004°59'0 0.0
2017-Nov-18 23:00N 43°24' E 004°59'0 0.0
2017-Nov-18 22:30N 43°24' E 004°59'0 0.0
2017-Nov-18 22:00N 43°24' E 004°59'0 0.0
2017-Nov-18 21:30N 43°24' E 004°59'0 0.0
2017-Nov-18 21:00N 43°24' E 004°59'0 0.0
2017-Nov-18 20:30N 43°24' E 004°59'0 0.0
2017-Nov-18 20:00N 43°24' E 004°59'0 0.0
2017-Nov-18 19:30N 43°24' E 004°59'0 0.0
2017-Nov-18 19:00N 43°24' E 004°59'0 0.0
2017-Nov-18 18:30N 43°24' E 004°59'0 0.0
2017-Nov-18 18:00N 43°24' E 004°59'0 0.0
2017-Nov-18 17:30N 43°24' E 004°59'0 0.0
2017-Nov-18 17:00N 43°24' E 004°59'0 0.0
2017-Nov-18 16:30N 43°24' E 004°59'0 0.0
2017-Nov-18 16:00N 43°24' E 004°59'0 0.5
2017-Nov-18 15:30N 43°24' E 004°59'0 0.6
2017-Nov-18 15:00N 43°24' E 004°59'2 0.2
2017-Nov-18 04:41N 43°22' E 004°59'2 8.7
2017-Nov-18 04:30N 43°24' E 004°59'0 0.4
2017-Nov-18 04:00N 43°24' E 004°60'0 0.0
2017-Nov-18 03:30N 43°24' E 004°60'0 0.0
2017-Nov-18 03:00N 43°24' E 004°60'0 0.0
2017-Nov-18 02:30N 43°24' E 004°60'0 0.4
2017-Nov-18 02:00N 43°24' E 004°59'0 0.0
2017-Nov-18 01:30N 43°24' E 004°59'0 0.0
2017-Nov-18 01:00N 43°24' E 004°59'0 0.0
2017-Nov-18 00:30N 43°24' E 004°59'0 0.0
2017-Nov-18 00:00N 43°24' E 004°59'0 0.0
2017-Nov-17 23:30N 43°24' E 004°59'0 0.0
2017-Nov-17 23:00N 43°24' E 004°59'0 0.0
2017-Nov-17 22:30N 43°24' E 004°59'0 0.0
2017-Nov-17 22:00N 43°24' E 004°59'0 0.0
2017-Nov-17 21:30N 43°24' E 004°59'0 0.0
2017-Nov-17 21:00N 43°24' E 004°59'0 0.0
2017-Nov-17 20:30N 43°24' E 004°59'0 0.0
2017-Nov-17 20:00N 43°24' E 004°59'0 0.0
2017-Nov-17 19:30N 43°24' E 004°59'0 0.0
2017-Nov-17 19:00N 43°24' E 004°59'0 0.0
2017-Nov-17 18:30N 43°24' E 004°59'0 0.0
2017-Nov-17 18:00N 43°24' E 004°59'0 0.0
2017-Nov-17 17:30N 43°24' E 004°59'0 0.0
2017-Nov-17 17:00N 43°24' E 004°59'0 0.2
2017-Nov-17 16:30N 43°24' E 004°59'1 0.1
2017-Nov-17 05:34N 43°23' E 004°59'0 8.0
2017-Nov-17 05:30N 43°24' E 004°59'0 0.5
2017-Nov-17 05:00N 43°24' E 004°59'0 0.0
2017-Nov-17 04:30N 43°24' E 004°59'0 0.0
2017-Nov-17 04:00N 43°24' E 004°59'0 0.0
2017-Nov-17 03:30N 43°24' E 004°59'0 0.0
2017-Nov-17 03:00N 43°24' E 004°59'0 0.0
2017-Nov-17 02:30N 43°24' E 004°60'0 0.0
2017-Nov-17 02:00N 43°24' E 004°59'0 0.0
2017-Nov-17 01:30N 43°24' E 004°59'0 0.0
2017-Nov-17 01:00N 43°24' E 004°60'0 0.0
2017-Nov-17 00:30N 43°24' E 004°59'0 0.0
2017-Nov-17 00:00N 43°24' E 004°60'0 0.0
2017-Nov-16 23:30N 43°24' E 004°59'0 0.0
2017-Nov-16 23:00N 43°24' E 004°59'0 0.0
2017-Nov-16 22:30N 43°24' E 004°60'0 0.0
2017-Nov-16 22:00N 43°24' E 004°59'0 0.0
2017-Nov-16 21:30N 43°24' E 004°60'0 0.0
2017-Nov-16 21:00N 43°24' E 004°59'0 0.0
2017-Nov-16 20:30N 43°24' E 004°60'0 0.0
2017-Nov-16 20:00N 43°24' E 004°59'0 0.0
2017-Nov-16 19:30N 43°24' E 004°59'0 0.0
2017-Nov-16 19:00N 43°24' E 004°59'0 0.0
2017-Nov-16 18:30N 43°24' E 004°60'0 0.0
2017-Nov-16 18:00N 43°24' E 004°60'0 0.0
2017-Nov-16 17:30N 43°24' E 004°60'0 0.0
2017-Nov-16 17:00N 43°24' E 004°60'0 0.4
2017-Nov-16 16:30N 43°24' E 004°59'0 0.6
2017-Nov-16 16:00N 43°24' E 004°59'0 0.0
2017-Nov-16 15:30N 43°24' E 004°59'0 0.0
2017-Nov-16 15:00N 43°24' E 004°59'0 0.0
2017-Nov-16 14:30N 43°24' E 004°59'0 0.0
2017-Nov-16 14:00N 43°24' E 004°59'0 0.0
2017-Nov-16 13:30N 43°24' E 004°59'0 0.0
2017-Nov-16 13:00N 43°24' E 004°59'0 0.0
2017-Nov-16 12:30N 43°24' E 004°59'0 0.0
2017-Nov-16 12:00N 43°24' E 004°59'0 0.0
2017-Nov-16 11:30N 43°24' E 004°59'0 0.0
2017-Nov-16 11:00N 43°24' E 004°59'0 0.0
2017-Nov-16 10:30N 43°24' E 004°59'0 0.0
2017-Nov-16 10:00N 43°24' E 004°59'0 0.0
2017-Nov-16 09:30N 43°24' E 004°59'0 0.0
2017-Nov-16 09:00N 43°24' E 004°59'0 0.0
2017-Nov-16 08:30N 43°24' E 004°59'0 0.0
2017-Nov-16 08:00N 43°24' E 004°59'0 0.0
2017-Nov-16 07:30N 43°24' E 004°59'0 0.0
2017-Nov-16 07:00N 43°24' E 004°59'0 0.0
2017-Nov-16 06:30N 43°24' E 004°59'0 0.0
2017-Nov-16 06:00N 43°24' E 004°59'0 0.0
2017-Nov-16 05:30N 43°24' E 004°59'0 0.0
2017-Nov-16 05:00N 43°24' E 004°59'0 0.0
2017-Nov-16 04:30N 43°24' E 004°59'0 0.0
2017-Nov-16 04:00N 43°24' E 004°59'0 0.0
2017-Nov-16 03:30N 43°24' E 004°59'0 0.0
2017-Nov-16 03:00N 43°24' E 004°59'0 0.0
2017-Nov-16 02:30N 43°24' E 004°59'0 0.0
2017-Nov-16 02:00N 43°24' E 004°59'0 0.0
2017-Nov-16 01:30N 43°24' E 004°59'0 0.0
2017-Nov-16 01:00N 43°24' E 004°59'0 0.0
2017-Nov-16 00:30N 43°24' E 004°59'0 0.0
2017-Nov-16 00:00N 43°24' E 004°59'0 0.0
2017-Nov-15 23:30N 43°24' E 004°59'0 0.0
2017-Nov-15 23:00N 43°24' E 004°59'0 0.0
2017-Nov-15 22:29N 43°24' E 004°59'0 0.0
2017-Nov-15 22:00N 43°24' E 004°59'0 0.0
2017-Nov-15 21:30N 43°24' E 004°59'0 0.0
2017-Nov-15 21:00N 43°24' E 004°59'0 0.0
2017-Nov-15 20:30N 43°24' E 004°59'0 0.0
2017-Nov-15 20:00N 43°24' E 004°59'0 0.0
2017-Nov-15 19:30N 43°24' E 004°59'0 0.0
2017-Nov-15 19:00N 43°24' E 004°59'0 0.0
2017-Nov-15 18:30N 43°24' E 004°59'0 0.0
2017-Nov-15 18:00N 43°24' E 004°59'0 0.0
2017-Nov-15 17:30N 43°24' E 004°59'0 0.0
2017-Nov-15 17:00N 43°24' E 004°59'0 0.0
2017-Nov-15 16:30N 43°24' E 004°59'0 0.0
2017-Nov-15 16:00N 43°24' E 004°59'0 0.0
2017-Nov-15 15:30N 43°24' E 004°59'0 0.0
2017-Nov-15 15:00N 43°24' E 004°59'0 0.0
2017-Nov-15 14:30N 43°24' E 004°59'0 0.0
2017-Nov-15 14:00N 43°24' E 004°59'0 0.0
2017-Nov-15 13:30N 43°24' E 004°59'0 0.0
2017-Nov-15 13:00N 43°24' E 004°59'0 0.0
2017-Nov-15 12:30N 43°24' E 004°59'0 0.7
2017-Nov-15 12:00N 43°24' E 004°59'1 0.1
2017-Nov-15 04:19N 43°23' E 004°59'1 2.2
2017-Nov-15 04:00N 43°24' E 004°59'0 0.0
2017-Nov-15 03:30N 43°24' E 004°59'0 0.0
2017-Nov-15 03:00N 43°24' E 004°59'0 0.0
2017-Nov-15 02:30N 43°24' E 004°59'0 0.0
2017-Nov-15 02:00N 43°24' E 004°59'0 0.0
2017-Nov-15 01:30N 43°24' E 004°59'0 0.0
2017-Nov-15 01:00N 43°24' E 004°59'0 0.0
2017-Nov-15 00:30N 43°24' E 004°59'0 0.0
2017-Nov-15 00:00N 43°24' E 004°59'0 0.0
2017-Nov-14 23:30N 43°24' E 004°59'0 0.0
2017-Nov-14 23:00N 43°24' E 004°59'0 0.0
2017-Nov-14 22:30N 43°24' E 004°59'0 0.0
2017-Nov-14 22:00N 43°24' E 004°59'0 0.0
2017-Nov-14 21:30N 43°24' E 004°59'0 0.0
2017-Nov-14 21:00N 43°24' E 004°59'0 0.0
2017-Nov-14 20:30N 43°24' E 004°59'0 0.0
2017-Nov-14 20:00N 43°24' E 004°59'0 0.0
2017-Nov-14 19:30N 43°24' E 004°59'0 0.0
2017-Nov-14 19:00N 43°24' E 004°59'0 0.0
2017-Nov-14 18:30N 43°24' E 004°59'0 0.0
2017-Nov-14 18:00N 43°24' E 004°59'0 0.0
2017-Nov-14 17:30N 43°24' E 004°59'0 0.0
2017-Nov-14 17:00N 43°24' E 004°59'1 1.2
2017-Nov-14 16:29N 43°24' E 004°59'0 0.0
2017-Nov-14 16:00N 43°24' E 004°59'0 0.0
2017-Nov-14 15:30N 43°24' E 004°59'0 0.0
2017-Nov-14 15:00N 43°24' E 004°59'0 0.0
2017-Nov-14 14:30N 43°24' E 004°59'0 0.0
2017-Nov-14 14:00N 43°24' E 004°59'0 0.0
2017-Nov-14 13:30N 43°24' E 004°59'0 0.0
2017-Nov-14 13:00N 43°24' E 004°59'0 0.0
2017-Nov-14 12:30N 43°24' E 004°59'0 0.0
2017-Nov-14 12:00N 43°24' E 004°59'0 0.0
2017-Nov-14 11:30N 43°24' E 004°59'0 0.0
2017-Nov-14 11:00N 43°24' E 004°59'0 0.0
2017-Nov-14 10:30N 43°24' E 004°59'0 0.0
2017-Nov-14 10:00N 43°24' E 004°59'0 0.0
2017-Nov-14 09:30N 43°24' E 004°59'0 0.0
2017-Nov-14 09:00N 43°24' E 004°59'0 0.0
2017-Nov-14 08:30N 43°24' E 004°59'0 0.0
2017-Nov-14 08:00N 43°24' E 004°59'0 0.0
2017-Nov-14 07:30N 43°24' E 004°59'0 0.0
2017-Nov-14 07:00N 43°24' E 004°59'0 0.0
2017-Nov-14 06:30N 43°24' E 004°59'0 0.0
2017-Nov-14 06:00N 43°24' E 004°59'0 0.0
2017-Nov-14 05:30N 43°24' E 004°59'0 0.0
2017-Nov-14 05:00N 43°24' E 004°59'0 0.0
2017-Nov-14 04:30N 43°24' E 004°59'0 0.0
2017-Nov-14 04:00N 43°24' E 004°59'0 0.0
2017-Nov-14 03:30N 43°24' E 004°59'0 0.0
2017-Nov-14 03:00N 43°24' E 004°59'0 0.0
2017-Nov-14 02:30N 43°24' E 004°59'0 0.0
2017-Nov-14 02:00N 43°24' E 004°59'0 0.0
2017-Nov-14 01:30N 43°24' E 004°59'0 0.0
2017-Nov-14 01:00N 43°24' E 004°59'0 0.0
2017-Nov-14 00:30N 43°24' E 004°59'0 0.0
2017-Nov-14 00:00N 43°24' E 004°59'0 0.0
2017-Nov-13 23:30N 43°24' E 004°59'0 0.0
2017-Nov-13 23:00N 43°24' E 004°59'0 0.0
2017-Nov-13 22:30N 43°24' E 004°59'0 0.0
2017-Nov-13 22:00N 43°24' E 004°59'  
Track history (hours):
 
Tides and Currents Weather Stations Pressure Air Temp Water Temp Dewpoint Dewpoint Depression Visibility Wind Speed Wind Dir Waves Ship Positions

Cap Aiguades

Last reported at 2017-Nov-23 16:30 UTC. Time now 2017-Nov-23 16:55 UTC.
Position N 43°24' E 004°59'.

Length 89 m; draft 4.8 m.

Type: Ship. MMSI: 228237800.

Date/timePositionNaut miles runAvg speedWind from/ knotsBaromVisibWave heightAir tempDewpointWater temp
2017-Nov-23 16:30N 43°24' E 004°59'0 0.9
2017-Nov-23 16:00N 43°24' E 004°60'0 0.0
2017-Nov-23 15:30N 43°24' E 004°60'0 0.0
2017-Nov-23 15:00N 43°24' E 004°60'0 0.0
2017-Nov-23 14:30N 43°24' E 004°60'0 0.0
2017-Nov-23 14:00N 43°24' E 004°60'0 0.0
2017-Nov-23 13:30N 43°24' E 004°60'0 0.0
2017-Nov-23 13:00N 43°24' E 004°60'7 8.6
2017-Nov-23 12:14N 43°25' E 004°51'6 0.7
2017-Nov-23 04:16N 43°23' E 004°58'1 3.7
2017-Nov-23 04:00N 43°24' E 004°59'0 0.0
2017-Nov-23 03:30N 43°24' E 004°59'0 0.0
2017-Nov-23 03:00N 43°24' E 004°59'0 0.0
2017-Nov-23 02:30N 43°24' E 004°59'0 0.0
2017-Nov-23 02:00N 43°24' E 004°59'0 0.0
2017-Nov-23 01:30N 43°24' E 004°59'0 0.0
2017-Nov-23 01:00N 43°24' E 004°59'0 0.0
2017-Nov-23 00:30N 43°24' E 004°59'0 0.0
2017-Nov-23 00:00N 43°24' E 004°59'0 0.0
2017-Nov-22 23:30N 43°24' E 004°59'0 0.0
2017-Nov-22 23:00N 43°24' E 004°59'0 0.0
2017-Nov-22 22:30N 43°24' E 004°59'0 0.0
2017-Nov-22 22:00N 43°24' E 004°59'0 0.0
2017-Nov-22 21:30N 43°24' E 004°59'0 0.0
2017-Nov-22 21:00N 43°24' E 004°59'0 0.0
2017-Nov-22 20:30N 43°24' E 004°59'0 0.0
2017-Nov-22 20:00N 43°24' E 004°59'0 0.0
2017-Nov-22 19:30N 43°24' E 004°59'  
2017-Nov-20 00:30N 43°06' E 005°53'0 0.0
2017-Nov-20 00:00N 43°06' E 005°53'0 0.0
2017-Nov-19 23:30N 43°06' E 005°53'0 0.0
2017-Nov-19 23:00N 43°06' E 005°53'0 0.0
2017-Nov-19 22:30N 43°06' E 005°53'0 0.0
2017-Nov-19 22:00N 43°06' E 005°53'0 0.0
2017-Nov-19 21:30N 43°06' E 005°53'0 0.0
2017-Nov-19 21:00N 43°06' E 005°53'0 0.0
2017-Nov-19 20:30N 43°06' E 005°53'0 0.0
2017-Nov-19 20:00N 43°06' E 005°53'0 0.0
2017-Nov-19 19:30N 43°06' E 005°53'0 0.0
2017-Nov-19 19:00N 43°06' E 005°53'0 0.0
2017-Nov-19 18:30N 43°06' E 005°53'1 2.6
2017-Nov-19 17:59N 43°07' E 005°55'0 0.2
2017-Nov-19 14:56N 43°07' E 005°56'0 0.1
2017-Nov-19 14:25N 43°07' E 005°56'0 0.0
2017-Nov-19 13:45N 43°07' E 005°56'0 0.0
2017-Nov-19 13:30N 43°07' E 005°56'0 0.0
2017-Nov-19 13:00N 43°07' E 005°56'0 0.0
2017-Nov-19 12:30N 43°07' E 005°56'0 0.1
2017-Nov-19 11:58N 43°07' E 005°56'45 6.4
2017-Nov-19 04:57N 43°22' E 004°58'2 4.4
2017-Nov-19 04:30N 43°24' E 004°59'0 0.0
2017-Nov-19 04:00N 43°24' E 004°59'0 0.0
2017-Nov-19 03:30N 43°24' E 004°59'0 0.0
2017-Nov-19 03:00N 43°24' E 004°59'0 0.0
2017-Nov-19 02:30N 43°24' E 004°59'0 0.0
2017-Nov-19 02:00N 43°24' E 004°59'0 0.0
2017-Nov-19 01:30N 43°24' E 004°59'0 0.0
2017-Nov-19 01:00N 43°24' E 004°59'0 0.0
2017-Nov-19 00:30N 43°24' E 004°59'0 0.0
2017-Nov-19 00:00N 43°24' E 004°59'0 0.0
2017-Nov-18 23:30N 43°24' E 004°59'0 0.0
2017-Nov-18 23:00N 43°24' E 004°59'0 0.0
2017-Nov-18 22:30N 43°24' E 004°59'0 0.0
2017-Nov-18 22:00N 43°24' E 004°59'0 0.0
2017-Nov-18 21:30N 43°24' E 004°59'0 0.0
2017-Nov-18 21:00N 43°24' E 004°59'0 0.0
2017-Nov-18 20:30N 43°24' E 004°59'0 0.0
2017-Nov-18 20:00N 43°24' E 004°59'0 0.0
2017-Nov-18 19:30N 43°24' E 004°59'0 0.0
2017-Nov-18 19:00N 43°24' E 004°59'0 0.0
2017-Nov-18 18:30N 43°24' E 004°59'0 0.0
2017-Nov-18 18:00N 43°24' E 004°59'0 0.0
2017-Nov-18 17:30N 43°24' E 004°59'0 0.0
2017-Nov-18 17:00N 43°24' E 004°59'0 0.0
2017-Nov-18 16:30N 43°24' E 004°59'0 0.0
2017-Nov-18 16:00N 43°24' E 004°59'0 0.5
2017-Nov-18 15:30N 43°24' E 004°59'0 0.6
2017-Nov-18 15:00N 43°24' E 004°59'2 0.2
2017-Nov-18 04:41N 43°22' E 004°59'2 8.7
2017-Nov-18 04:30N 43°24' E 004°59'0 0.4
2017-Nov-18 04:00N 43°24' E 004°60'0 0.0
2017-Nov-18 03:30N 43°24' E 004°60'0 0.0
2017-Nov-18 03:00N 43°24' E 004°60'0 0.0
2017-Nov-18 02:30N 43°24' E 004°60'0 0.4
2017-Nov-18 02:00N 43°24' E 004°59'0 0.0
2017-Nov-18 01:30N 43°24' E 004°59'0 0.0
2017-Nov-18 01:00N 43°24' E 004°59'0 0.0
2017-Nov-18 00:30N 43°24' E 004°59'0 0.0
2017-Nov-18 00:00N 43°24' E 004°59'0 0.0
2017-Nov-17 23:30N 43°24' E 004°59'0 0.0
2017-Nov-17 23:00N 43°24' E 004°59'0 0.0
2017-Nov-17 22:30N 43°24' E 004°59'0 0.0
2017-Nov-17 22:00N 43°24' E 004°59'0 0.0
2017-Nov-17 21:30N 43°24' E 004°59'0 0.0
2017-Nov-17 21:00N 43°24' E 004°59'0 0.0
2017-Nov-17 20:30N 43°24' E 004°59'0 0.0
2017-Nov-17 20:00N 43°24' E 004°59'0 0.0
2017-Nov-17 19:30N 43°24' E 004°59'0 0.0
2017-Nov-17 19:00N 43°24' E 004°59'0 0.0
2017-Nov-17 18:30N 43°24' E 004°59'0 0.0
2017-Nov-17 18:00N 43°24' E 004°59'0 0.0
2017-Nov-17 17:30N 43°24' E 004°59'0 0.0
2017-Nov-17 17:00N 43°24' E 004°59'0 0.2
2017-Nov-17 16:30N 43°24' E 004°59'1 0.1
2017-Nov-17 05:34N 43°23' E 004°59'0 8.0
2017-Nov-17 05:30N 43°24' E 004°59'0 0.5
2017-Nov-17 05:00N 43°24' E 004°59'0 0.0
2017-Nov-17 04:30N 43°24' E 004°59'0 0.0
2017-Nov-17 04:00N 43°24' E 004°59'0 0.0
2017-Nov-17 03:30N 43°24' E 004°59'0 0.0
2017-Nov-17 03:00N 43°24' E 004°59'0 0.0
2017-Nov-17 02:30N 43°24' E 004°60'0 0.0
2017-Nov-17 02:00N 43°24' E 004°59'0 0.0
2017-Nov-17 01:30N 43°24' E 004°59'0 0.0
2017-Nov-17 01:00N 43°24' E 004°60'0 0.0
2017-Nov-17 00:30N 43°24' E 004°59'0 0.0
2017-Nov-17 00:00N 43°24' E 004°60'0 0.0
2017-Nov-16 23:30N 43°24' E 004°59'0 0.0
2017-Nov-16 23:00N 43°24' E 004°59'0 0.0
2017-Nov-16 22:30N 43°24' E 004°60'0 0.0
2017-Nov-16 22:00N 43°24' E 004°59'0 0.0
2017-Nov-16 21:30N 43°24' E 004°60'0 0.0
2017-Nov-16 21:00N 43°24' E 004°59'0 0.0
2017-Nov-16 20:30N 43°24' E 004°60'0 0.0
2017-Nov-16 20:00N 43°24' E 004°59'0 0.0
2017-Nov-16 19:30N 43°24' E 004°59'0 0.0
2017-Nov-16 19:00N 43°24' E 004°59'0 0.0
2017-Nov-16 18:30N 43°24' E 004°60'0 0.0
2017-Nov-16 18:00N 43°24' E 004°60'0 0.0
2017-Nov-16 17:30N 43°24' E 004°60'0 0.0
2017-Nov-16 17:00N 43°24' E 004°60'0 0.4
2017-Nov-16 16:30N 43°24' E 004°59'0 0.6
2017-Nov-16 16:00N 43°24' E 004°59'0 0.0
2017-Nov-16 15:30N 43°24' E 004°59'0 0.0
2017-Nov-16 15:00N 43°24' E 004°59'0 0.0
2017-Nov-16 14:30N 43°24' E 004°59'0 0.0
2017-Nov-16 14:00N 43°24' E 004°59'0 0.0
2017-Nov-16 13:30N 43°24' E 004°59'0 0.0
2017-Nov-16 13:00N 43°24' E 004°59'0 0.0
2017-Nov-16 12:30N 43°24' E 004°59'0 0.0
2017-Nov-16 12:00N 43°24' E 004°59'0 0.0
2017-Nov-16 11:30N 43°24' E 004°59'0 0.0
2017-Nov-16 11:00N 43°24' E 004°59'0 0.0
2017-Nov-16 10:30N 43°24' E 004°59'0 0.0
2017-Nov-16 10:00N 43°24' E 004°59'0 0.0
2017-Nov-16 09:30N 43°24' E 004°59'0 0.0
2017-Nov-16 09:00N 43°24' E 004°59'0 0.0
2017-Nov-16 08:30N 43°24' E 004°59'0 0.0
2017-Nov-16 08:00N 43°24' E 004°59'0 0.0
2017-Nov-16 07:30N 43°24' E 004°59'0 0.0
2017-Nov-16 07:00N 43°24' E 004°59'0 0.0
2017-Nov-16 06:30N 43°24' E 004°59'0 0.0
2017-Nov-16 06:00N 43°24' E 004°59'0 0.0
2017-Nov-16 05:30N 43°24' E 004°59'0 0.0
2017-Nov-16 05:00N 43°24' E 004°59'0 0.0
2017-Nov-16 04:30N 43°24' E 004°59'0 0.0
2017-Nov-16 04:00N 43°24' E 004°59'0 0.0
2017-Nov-16 03:30N 43°24' E 004°59'0 0.0
2017-Nov-16 03:00N 43°24' E 004°59'0 0.0
2017-Nov-16 02:30N 43°24' E 004°59'0 0.0
2017-Nov-16 02:00N 43°24' E 004°59'0 0.0
2017-Nov-16 01:30N 43°24' E 004°59'0 0.0
2017-Nov-16 01:00N 43°24' E 004°59'0 0.0
2017-Nov-16 00:30N 43°24' E 004°59'0 0.0
2017-Nov-16 00:00N 43°24' E 004°59'0 0.0
2017-Nov-15 23:30N 43°24' E 004°59'0 0.0
2017-Nov-15 23:00N 43°24' E 004°59'0 0.0
2017-Nov-15 22:29N 43°24' E 004°59'0 0.0
2017-Nov-15 22:00N 43°24' E 004°59'0 0.0
2017-Nov-15 21:30N 43°24' E 004°59'0 0.0
2017-Nov-15 21:00N 43°24' E 004°59'0 0.0
2017-Nov-15 20:30N 43°24' E 004°59'0 0.0
2017-Nov-15 20:00N 43°24' E 004°59'0 0.0
2017-Nov-15 19:30N 43°24' E 004°59'0 0.0
2017-Nov-15 19:00N 43°24' E 004°59'0 0.0
2017-Nov-15 18:30N 43°24' E 004°59'0 0.0
2017-Nov-15 18:00N 43°24' E 004°59'0 0.0
2017-Nov-15 17:30N 43°24' E 004°59'0 0.0
2017-Nov-15 17:00N 43°24' E 004°59'0 0.0
2017-Nov-15 16:30N 43°24' E 004°59'0 0.0
2017-Nov-15 16:00N 43°24' E 004°59'0 0.0
2017-Nov-15 15:30N 43°24' E 004°59'0 0.0
2017-Nov-15 15:00N 43°24' E 004°59'0 0.0
2017-Nov-15 14:30N 43°24' E 004°59'0 0.0
2017-Nov-15 14:00N 43°24' E 004°59'0 0.0
2017-Nov-15 13:30N 43°24' E 004°59'0 0.0
2017-Nov-15 13:00N 43°24' E 004°59'0 0.0
2017-Nov-15 12:30N 43°24' E 004°59'0 0.7
2017-Nov-15 12:00N 43°24' E 004°59'1 0.1
2017-Nov-15 04:19N 43°23' E 004°59'1 2.2
2017-Nov-15 04:00N 43°24' E 004°59'0 0.0
2017-Nov-15 03:30N 43°24' E 004°59'0 0.0
2017-Nov-15 03:00N 43°24' E 004°59'0 0.0
2017-Nov-15 02:30N 43°24' E 004°59'0 0.0
2017-Nov-15 02:00N 43°24' E 004°59'0 0.0
2017-Nov-15 01:30N 43°24' E 004°59'0 0.0
2017-Nov-15 01:00N 43°24' E 004°59'0 0.0
2017-Nov-15 00:30N 43°24' E 004°59'0 0.0
2017-Nov-15 00:00N 43°24' E 004°59'0 0.0
2017-Nov-14 23:30N 43°24' E 004°59'0 0.0
2017-Nov-14 23:00N 43°24' E 004°59'0 0.0
2017-Nov-14 22:30N 43°24' E 004°59'0 0.0
2017-Nov-14 22:00N 43°24' E 004°59'0 0.0
2017-Nov-14 21:30N 43°24' E 004°59'0 0.0
2017-Nov-14 21:00N 43°24' E 004°59'0 0.0
2017-Nov-14 20:30N 43°24' E 004°59'0 0.0
2017-Nov-14 20:00N 43°24' E 004°59'0 0.0
2017-Nov-14 19:30N 43°24' E 004°59'0 0.0
2017-Nov-14 19:00N 43°24' E 004°59'0 0.0
2017-Nov-14 18:30N 43°24' E 004°59'0 0.0
2017-Nov-14 18:00N 43°24' E 004°59'0 0.0
2017-Nov-14 17:30N 43°24' E 004°59'0 0.0
2017-Nov-14 17:00N 43°24' E 004°59'1 1.2
2017-Nov-14 16:29N 43°24' E 004°59'0 0.0
2017-Nov-14 16:00N 43°24' E 004°59'0 0.0
2017-Nov-14 15:30N 43°24' E 004°59'0 0.0
2017-Nov-14 15:00N 43°24' E 004°59'0 0.0
2017-Nov-14 14:30N 43°24' E 004°59'0 0.0
2017-Nov-14 14:00N 43°24' E 004°59'0 0.0
2017-Nov-14 13:30N 43°24' E 004°59'0 0.0
2017-Nov-14 13:00N 43°24' E 004°59'0 0.0
2017-Nov-14 12:30N 43°24' E 004°59'0 0.0
2017-Nov-14 12:00N 43°24' E 004°59'0 0.0
2017-Nov-14 11:30N 43°24' E 004°59'0 0.0
2017-Nov-14 11:00N 43°24' E 004°59'0 0.0
2017-Nov-14 10:30N 43°24' E 004°59'0 0.0
2017-Nov-14 10:00N 43°24' E 004°59'0 0.0
2017-Nov-14 09:30N 43°24' E 004°59'0 0.0
2017-Nov-14 09:00N 43°24' E 004°59'0 0.0
2017-Nov-14 08:30N 43°24' E 004°59'0 0.0
2017-Nov-14 08:00N 43°24' E 004°59'0 0.0
2017-Nov-14 07:30N 43°24' E 004°59'0 0.0
2017-Nov-14 07:00N 43°24' E 004°59'0 0.0
2017-Nov-14 06:30N 43°24' E 004°59'0 0.0
2017-Nov-14 06:00N 43°24' E 004°59'0 0.0
2017-Nov-14 05:30N 43°24' E 004°59'0 0.0
2017-Nov-14 05:00N 43°24' E 004°59'0 0.0
2017-Nov-14 04:30N 43°24' E 004°59'0 0.0
2017-Nov-14 04:00N 43°24' E 004°59'0 0.0
2017-Nov-14 03:30N 43°24' E 004°59'0 0.0
2017-Nov-14 03:00N 43°24' E 004°59'0 0.0
2017-Nov-14 02:30N 43°24' E 004°59'0 0.0
2017-Nov-14 02:00N 43°24' E 004°59'0 0.0
2017-Nov-14 01:30N 43°24' E 004°59'0 0.0
2017-Nov-14 01:00N 43°24' E 004°59'0 0.0
2017-Nov-14 00:30N 43°24' E 004°59'0 0.0
2017-Nov-14 00:00N 43°24' E 004°59'0 0.0
2017-Nov-13 23:30N 43°24' E 004°59'0 0.0
2017-Nov-13 23:00N 43°24' E 004°59'0 0.0
2017-Nov-13 22:30N 43°24' E 004°59'0 0.0
2017-Nov-13 22:00N 43°24' E 004°59'  

Dump ship's entire track history